Weather at A Coruña Airport

Public forecast

Using degrees Celsius for public forecast. Weather courtesy of forecast.io.

Current aviation weather report (METAR) for A Coruña Airport

2024/05/28 05:00 (retrieved 28 minutes ago)

LECO 280500Z 17005KT 0300 R21/1700D R03/1900N FG NSC 08/07 Q1022 TEMPO 3000 BCFG

Closest aviation forecast (TAF) to A Coruña Airport

Forecast is more than 6 hours old.

Closest forecast is Ovar Air Base, 143.8 nm (266.3 km) S.

2024/05/27 20:06 Ammendment (retrieved 9 hours ago)

TAF AMD TAF AMD LPOV 272003Z 2720/2818 CNL